createdAt,value
2023-05-06T00:00:08.250Z,85
2023-05-06T00:30:21.044Z,85
2023-05-06T01:00:19.151Z,85
2023-05-06T01:30:30.165Z,83
2023-05-06T02:00:15.245Z,84
2023-05-06T02:30:29.071Z,84
2023-05-06T03:00:19.347Z,84
2023-05-06T03:30:23.214Z,85
2023-05-06T04:00:23.898Z,86
2023-05-06T04:30:16.162Z,84
2023-05-06T05:00:29.600Z,86
2023-05-06T06:00:18.356Z,81
2023-05-06T06:30:08.620Z,82
2023-05-06T07:00:12.662Z,79
2023-05-06T07:30:23.676Z,79
2023-05-06T08:00:16.469Z,77
2023-05-06T08:30:28.814Z,72
2023-05-06T09:00:01.159Z,69
2023-05-06T09:30:13.094Z,65
2023-05-06T10:30:26.164Z,57
2023-05-06T11:00:27.059Z,58
2023-05-06T11:30:28.529Z,57
2023-05-06T12:00:02.624Z,51
2023-05-06T12:30:03.355Z,49
2023-05-06T13:00:23.860Z,48
2023-05-06T13:30:27.880Z,40
2023-05-06T14:00:19.190Z,41
2023-05-06T14:30:22.401Z,33
2023-05-06T14:59:59.780Z,29
2023-05-06T15:30:25.505Z,36
2023-05-06T16:00:26.939Z,34
2023-05-06T16:30:29.638Z,35
2023-05-06T17:00:21.139Z,36
2023-05-06T17:30:12.536Z,38
2023-05-06T18:00:16.799Z,46
2023-05-06T18:30:19.681Z,51
2023-05-06T19:00:09.884Z,54
2023-05-06T20:00:01.186Z,56
2023-05-06T20:30:23.398Z,58
2023-05-06T21:00:25.592Z,60
2023-05-06T21:30:17.263Z,60
2023-05-06T22:00:21.036Z,59
2023-05-06T22:30:02.057Z,58
2023-05-06T23:00:05.848Z,61
2023-05-06T23:30:26.128Z,63
